createdAt,value
2018-09-02T07:46:14.310Z,6.30
2018-09-02T07:48:42.517Z,6.50
2018-09-02T07:51:10.721Z,5.90
2018-09-02T07:53:38.939Z,5.77
2018-09-02T07:56:07.109Z,4.83
2018-09-02T07:58:35.385Z,5.80
2018-09-02T08:01:03.602Z,5.40
2018-09-02T08:03:31.781Z,4.90
2018-09-02T08:05:59.998Z,4.83
2018-09-02T08:08:28.189Z,4.50
2018-09-02T08:10:56.504Z,4.60
2018-09-02T08:13:24.686Z,5.00
2018-09-02T08:15:52.883Z,4.17
2018-09-02T08:18:21.070Z,4.33
2018-09-02T08:20:49.246Z,3.97
2018-09-02T08:23:17.423Z,3.50
2018-09-02T08:25:45.597Z,3.30
2018-09-02T08:28:13.829Z,2.70
2018-09-02T08:30:42.066Z,3.17
2018-09-02T08:33:10.434Z,4.00
2018-09-02T08:35:38.522Z,3.70
2018-09-02T08:38:06.746Z,4.00
2018-09-02T08:40:34.922Z,3.50
2018-09-02T08:43:03.106Z,2.80
2018-09-02T08:45:31.326Z,2.57
2018-09-02T08:47:59.510Z,3.47
2018-09-02T08:50:27.691Z,3.60
2018-09-02T08:52:55.849Z,3.00
2018-09-02T08:55:24.085Z,3.07
2018-09-02T08:57:52.254Z,3.30
2018-09-02T09:00:20.668Z,3.10
2018-09-02T09:02:49.975Z,2.80
2018-09-02T09:05:18.132Z,2.47
2018-09-02T09:07:46.529Z,3.53
2018-09-02T09:10:14.578Z,3.73
2018-09-02T09:12:43.308Z,2.60
2018-09-02T09:15:11.446Z,2.93
2018-09-02T09:17:39.786Z,3.00
2018-09-02T09:20:09.227Z,2.43
2018-09-02T09:22:38.659Z,2.43
2018-09-02T09:25:08.429Z,2.50
2018-09-02T09:27:36.558Z,2.40
2018-09-02T09:30:05.017Z,3.00
2018-09-02T09:32:33.324Z,2.77
2018-09-02T09:35:01.517Z,3.17
2018-09-02T09:37:29.793Z,2.60
2018-09-02T09:39:57.936Z,2.50
2018-09-02T09:42:26.119Z,2.50
2018-09-02T09:44:54.374Z,2.40
2018-09-02T09:47:22.619Z,2.17
2018-09-02T09:49:50.774Z,2.50
2018-09-02T09:52:19.066Z,2.37
2018-09-02T09:54:47.258Z,2.73
2018-09-02T09:57:15.442Z,2.37
2018-09-02T09:59:43.638Z,2.40
2018-09-02T10:02:11.844Z,2.77
2018-09-02T10:04:40.035Z,2.80
2018-09-02T10:07:08.209Z,2.30
2018-09-02T10:09:36.389Z,2.00
2018-09-02T10:12:04.574Z,2.50
2018-09-02T10:14:32.794Z,2.37
2018-09-02T10:17:00.962Z,2.30
2018-09-02T10:19:29.137Z,2.50
2018-09-02T10:21:57.342Z,2.13
2018-09-02T10:24:25.633Z,2.47
2018-09-02T10:26:53.806Z,2.27
2018-09-02T10:29:21.980Z,2.07
2018-09-02T10:31:50.203Z,1.80
2018-09-02T10:34:18.452Z,2.40
2018-09-02T10:36:46.677Z,3.47
2018-09-02T10:39:14.857Z,3.23
2018-09-02T10:41:43.058Z,4.87
2018-09-02T10:44:11.258Z,3.90
2018-09-02T10:46:39.440Z,3.40
2018-09-02T10:49:07.621Z,3.57
2018-09-02T10:51:35.869Z,2.83
2018-09-02T10:54:04.178Z,2.60
2018-09-02T10:56:32.614Z,3.97
2018-09-02T10:59:00.779Z,3.23
2018-09-02T11:01:28.921Z,4.90
2018-09-02T11:03:57.092Z,3.13
2018-09-02T11:06:25.302Z,4.90
2018-09-02T11:08:53.460Z,3.07
2018-09-02T11:11:21.623Z,3.60
2018-09-02T11:13:49.814Z,3.73
2018-09-02T11:16:17.930Z,3.43
2018-09-02T11:18:46.103Z,3.90
2018-09-02T11:21:14.326Z,2.60
2018-09-02T11:23:42.491Z,2.47
2018-09-02T11:26:10.663Z,2.50
2018-09-02T11:28:38.814Z,2.70
2018-09-02T11:31:06.967Z,2.10
2018-09-02T11:33:35.151Z,2.13
2018-09-02T11:36:03.300Z,2.67
2018-09-02T11:38:31.542Z,2.47
2018-09-02T11:40:59.758Z,2.40
2018-09-02T11:43:27.943Z,2.60
2018-09-02T11:45:56.080Z,2.23
2018-09-02T11:48:24.231Z,2.20
2018-09-02T11:50:52.398Z,2.43
2018-09-02T11:53:20.590Z,2.70
2018-09-02T11:55:48.738Z,2.20
2018-09-02T11:58:16.894Z,2.50
2018-09-02T12:00:45.230Z,2.00
2018-09-02T12:03:13.410Z,2.37
2018-09-02T12:05:41.585Z,2.10
2018-09-02T12:08:09.747Z,2.30
2018-09-02T12:10:37.937Z,2.10
2018-09-02T12:13:06.326Z,2.27
2018-09-02T12:15:34.455Z,2.90
2018-09-02T12:18:02.604Z,2.60
2018-09-02T12:20:30.758Z,2.80
2018-09-02T12:22:58.934Z,2.40
2018-09-02T12:25:27.092Z,4.27
2018-09-02T12:27:56.286Z,4.47
2018-09-02T12:30:24.458Z,2.73
2018-09-02T12:32:52.623Z,2.30
2018-09-02T12:35:20.778Z,2.40
2018-09-02T12:37:48.925Z,2.60
2018-09-02T12:40:17.098Z,2.30
2018-09-02T12:42:45.470Z,2.57
2018-09-02T12:45:13.859Z,2.37
2018-09-02T12:47:42.097Z,2.60
2018-09-02T12:50:10.262Z,2.70
2018-09-02T12:52:38.405Z,4.77
2018-09-02T12:55:06.733Z,2.60
2018-09-02T12:57:34.901Z,3.10
2018-09-02T13:00:03.091Z,3.10
2018-09-02T13:02:31.232Z,6.10
2018-09-02T13:04:59.385Z,3.60
2018-09-02T13:07:27.522Z,3.00
2018-09-02T13:09:55.742Z,3.20
2018-09-02T13:12:23.886Z,2.87
2018-09-02T13:14:52.148Z,2.83
2018-09-02T13:17:20.278Z,3.23
2018-09-02T13:19:48.599Z,7.77
2018-09-02T13:22:16.813Z,3.80
2018-09-02T13:24:45.016Z,9.00
2018-09-02T13:27:13.115Z,5.00
2018-09-02T13:29:41.352Z,3.40
2018-09-02T13:32:09.563Z,3.63
2018-09-02T13:34:37.694Z,4.40
2018-09-02T13:37:05.859Z,3.20
2018-09-02T13:39:34.002Z,4.10
2018-09-02T13:42:02.211Z,2.80
2018-09-02T13:44:30.375Z,3.73
2018-09-02T13:46:58.543Z,3.70
2018-09-02T13:49:26.678Z,2.90
2018-09-02T13:51:54.855Z,2.73
2018-09-02T13:54:23.269Z,2.73
2018-09-02T13:56:51.450Z,3.00
2018-09-02T13:59:19.631Z,2.23
2018-09-02T14:01:47.822Z,2.60
2018-09-02T14:04:16.114Z,2.90
2018-09-02T14:06:44.388Z,2.67
2018-09-02T14:09:12.557Z,2.53
2018-09-02T14:11:40.749Z,2.27
2018-09-02T14:14:08.930Z,3.17
2018-09-02T14:16:37.144Z,4.03
2018-09-02T14:19:05.363Z,3.07
2018-09-02T14:21:33.838Z,3.20
2018-09-02T14:24:02.053Z,3.20
2018-09-02T14:26:30.238Z,2.93
2018-09-02T14:28:58.426Z,2.70
2018-09-02T14:31:26.646Z,2.80
2018-09-02T14:33:54.825Z,2.20
2018-09-02T14:36:22.998Z,2.43
2018-09-02T14:38:51.503Z,2.40
2018-09-02T14:41:19.922Z,2.70
2018-09-02T14:43:48.351Z,2.30
2018-09-02T14:46:16.523Z,2.47
2018-09-02T14:48:44.714Z,2.60
2018-09-02T14:51:12.906Z,2.43
2018-09-02T14:53:41.647Z,2.07
2018-09-02T14:56:09.804Z,2.30
2018-09-02T14:58:38.153Z,2.23
2018-09-02T15:01:06.312Z,2.33
2018-09-02T15:03:34.486Z,2.90
2018-09-02T15:06:03.057Z,2.23
2018-09-02T15:08:31.214Z,2.20
2018-09-02T15:10:59.514Z,2.33
2018-09-02T15:13:27.681Z,2.20
2018-09-02T15:15:55.868Z,2.30
2018-09-02T15:18:24.037Z,2.20
2018-09-02T15:20:52.202Z,2.63
2018-09-02T15:23:20.370Z,2.20
2018-09-02T15:25:48.505Z,2.20
2018-09-02T15:28:16.646Z,2.30
2018-09-02T15:30:44.794Z,2.40
2018-09-02T15:33:13.110Z,2.80
2018-09-02T15:35:41.344Z,2.50
2018-09-02T15:38:09.542Z,2.30
2018-09-02T15:40:37.690Z,2.40
2018-09-02T15:43:06.029Z,2.00
2018-09-02T15:45:34.203Z,2.50
2018-09-02T15:48:02.341Z,2.67
2018-09-02T15:50:30.490Z,2.67
2018-09-02T15:52:58.672Z,2.30
2018-09-02T15:55:26.834Z,2.20
2018-09-02T15:57:54.978Z,2.50
2018-09-02T16:00:23.147Z,2.30
2018-09-02T16:02:51.302Z,2.30
2018-09-02T16:05:19.442Z,2.43
2018-09-02T16:07:47.577Z,2.40
2018-09-02T16:10:15.739Z,2.73
2018-09-02T16:12:45.531Z,2.10
2018-09-02T16:15:13.721Z,3.43
2018-09-02T16:17:41.866Z,3.10
2018-09-02T16:20:10.039Z,2.70
2018-09-02T16:22:38.222Z,3.27
2018-09-02T16:25:06.549Z,3.90
2018-09-02T16:27:34.720Z,2.57
2018-09-02T16:30:02.886Z,2.40
2018-09-02T16:32:32.765Z,2.13
2018-09-02T16:35:01.142Z,2.33
2018-09-02T16:37:29.323Z,2.37
2018-09-02T16:39:57.454Z,2.23
2018-09-02T16:42:25.641Z,2.45
2018-09-02T16:44:53.783Z,2.43
2018-09-02T16:47:21.946Z,2.40
2018-09-02T16:49:50.117Z,2.23
2018-09-02T16:52:18.306Z,2.50
2018-09-02T16:54:46.465Z,2.53
2018-09-02T16:57:14.632Z,2.17
2018-09-02T16:59:42.827Z,2.57
2018-09-02T17:02:10.980Z,2.00
2018-09-02T17:04:41.118Z,2.20
2018-09-02T17:07:09.269Z,2.20
2018-09-02T17:09:37.501Z,2.40
2018-09-02T17:12:05.762Z,2.30
2018-09-02T17:14:33.798Z,2.60
2018-09-02T17:17:01.954Z,2.10
2018-09-02T17:19:33.391Z,2.80
2018-09-02T17:22:01.598Z,2.20
2018-09-02T17:24:29.768Z,2.37
2018-09-02T17:26:58.136Z,2.30
2018-09-02T17:29:26.304Z,2.50
2018-09-02T17:31:54.462Z,2.30
2018-09-02T17:34:22.683Z,2.70
2018-09-02T17:36:50.914Z,2.33
2018-09-02T17:39:19.070Z,2.70
2018-09-02T17:41:47.270Z,2.47
2018-09-02T17:44:15.447Z,1.97
2018-09-02T17:46:43.659Z,2.00
2018-09-02T17:49:11.816Z,2.13
2018-09-02T17:51:39.965Z,2.65
2018-09-02T17:54:08.194Z,2.67
2018-09-02T17:56:36.419Z,2.37
2018-09-02T17:59:04.630Z,2.20
2018-09-02T18:01:32.842Z,2.60
2018-09-02T18:04:01.014Z,2.17
2018-09-02T18:06:29.175Z,2.40
2018-09-02T18:08:57.455Z,2.10
2018-09-02T18:11:25.622Z,1.83
2018-09-02T18:13:53.851Z,2.30
2018-09-02T18:16:22.096Z,2.20
2018-09-02T18:18:51.259Z,2.73
2018-09-02T18:21:19.555Z,2.57
2018-09-02T18:23:47.729Z,2.47
2018-09-02T18:26:15.906Z,2.00
2018-09-02T18:28:45.730Z,2.40
2018-09-02T18:31:13.936Z,2.43
2018-09-02T18:33:42.130Z,2.13
2018-09-02T18:36:10.363Z,2.27
2018-09-02T18:38:39.114Z,1.90
2018-09-02T18:41:07.307Z,1.90
2018-09-02T18:43:35.486Z,2.27
2018-09-02T18:46:03.673Z,2.20
2018-09-02T18:48:32.119Z,2.70
2018-09-02T18:51:00.334Z,2.20
2018-09-02T18:53:28.517Z,2.67
2018-09-02T18:55:57.165Z,2.70
2018-09-02T18:58:25.493Z,2.83
2018-09-02T19:00:54.616Z,2.40
2018-09-02T19:03:22.935Z,2.40
2018-09-02T19:05:51.976Z,2.40
2018-09-02T19:08:20.166Z,3.15
2018-09-02T19:10:48.649Z,3.10
2018-09-02T19:13:16.889Z,2.43
2018-09-02T19:15:45.203Z,2.63
2018-09-02T19:18:13.502Z,2.30
2018-09-02T19:20:41.782Z,2.17
2018-09-02T19:23:10.100Z,2.70
2018-09-02T19:25:38.314Z,2.27
2018-09-02T19:28:06.337Z,2.60
2018-09-02T19:30:34.543Z,3.00
2018-09-02T19:33:02.826Z,2.77
2018-09-02T19:35:31.493Z,2.17
2018-09-02T19:37:59.774Z,2.53
2018-09-02T19:40:28.018Z,2.80
2018-09-02T19:42:56.179Z,2.40
2018-09-02T19:45:24.376Z,2.20
2018-09-02T19:47:52.650Z,2.80
2018-09-02T19:50:20.963Z,2.30
2018-09-02T19:52:49.298Z,2.00
2018-09-02T19:55:17.478Z,2.27
2018-09-02T19:57:45.765Z,2.52
2018-09-02T20:00:14.437Z,2.13
2018-09-02T20:02:42.648Z,2.80
2018-09-02T20:05:11.086Z,2.43
2018-09-02T20:07:39.306Z,2.73
2018-09-02T20:10:07.783Z,2.53
2018-09-02T20:12:36.014Z,2.23
2018-09-02T20:15:04.417Z,2.80
2018-09-02T20:17:32.590Z,2.70
2018-09-02T20:20:00.771Z,2.30
2018-09-02T20:22:28.974Z,2.60
2018-09-02T20:24:57.147Z,2.63
2018-09-02T20:27:25.332Z,2.67
2018-09-02T20:29:53.532Z,2.57
2018-09-02T20:32:21.711Z,2.97
2018-09-02T20:34:49.979Z,2.60
2018-09-02T20:37:18.245Z,2.50
2018-09-02T20:39:46.475Z,2.73
2018-09-02T20:42:14.652Z,2.80
2018-09-02T20:44:42.854Z,2.83
2018-09-02T20:47:11.047Z,2.87
2018-09-02T20:49:39.351Z,2.30
2018-09-02T20:52:07.578Z,2.50
2018-09-02T20:54:35.746Z,2.57
2018-09-02T20:57:03.923Z,2.53
2018-09-02T20:59:32.154Z,2.33
2018-09-02T21:02:00.325Z,2.70
2018-09-02T21:04:28.474Z,2.80
2018-09-02T21:06:56.694Z,2.60
2018-09-02T21:09:24.861Z,2.80
2018-09-02T21:11:53.067Z,3.20
2018-09-02T21:14:21.218Z,2.60
2018-09-02T21:16:49.392Z,2.60
2018-09-02T21:19:18.562Z,2.67
2018-09-02T21:21:46.706Z,2.60
2018-09-02T21:24:14.850Z,2.43
2018-09-02T21:26:43.000Z,3.20
2018-09-02T21:29:11.181Z,2.90
2018-09-02T21:31:39.358Z,3.00
2018-09-02T21:34:07.498Z,2.60
2018-09-02T21:36:35.647Z,2.73
2018-09-02T21:39:04.111Z,2.50
2018-09-02T21:41:32.314Z,2.23
2018-09-02T21:44:00.442Z,2.67
2018-09-02T21:46:28.590Z,2.90
2018-09-02T21:48:56.730Z,2.60
2018-09-02T21:51:24.890Z,2.93
2018-09-02T21:53:53.114Z,2.93
2018-09-02T21:56:21.298Z,2.47
2018-09-02T21:58:50.410Z,2.70
2018-09-02T22:01:18.589Z,2.50
2018-09-02T22:03:46.767Z,2.87
2018-09-02T22:06:14.958Z,2.80
2018-09-02T22:08:43.166Z,2.80
2018-09-02T22:11:11.470Z,3.40
2018-09-02T22:13:39.629Z,3.20
2018-09-02T22:16:07.814Z,2.77
2018-09-02T22:18:36.008Z,2.87
2018-09-02T22:21:04.226Z,2.70
2018-09-02T22:23:32.415Z,2.73
2018-09-02T22:26:00.602Z,2.83
2018-09-02T22:28:28.791Z,2.80
2018-09-02T22:30:56.986Z,3.03
2018-09-02T22:33:25.173Z,3.00
2018-09-02T22:35:53.334Z,2.97
2018-09-02T22:38:21.544Z,2.80
2018-09-02T22:40:49.697Z,2.90
2018-09-02T22:43:17.919Z,3.07
2018-09-02T22:45:46.093Z,3.33
2018-09-02T22:48:14.282Z,2.90
2018-09-02T22:50:42.522Z,2.47
2018-09-02T22:53:10.706Z,3.10
2018-09-02T22:55:38.878Z,3.23
2018-09-02T22:58:07.278Z,3.40
2018-09-02T23:00:35.454Z,3.10
2018-09-02T23:03:03.673Z,3.50
2018-09-02T23:05:31.842Z,3.50
2018-09-02T23:08:00.026Z,3.40
2018-09-02T23:10:28.203Z,3.00
2018-09-02T23:12:56.411Z,3.40
2018-09-02T23:15:24.624Z,3.10
2018-09-02T23:17:52.799Z,3.20
2018-09-02T23:20:21.006Z,3.13
2018-09-02T23:22:49.353Z,3.13
2018-09-02T23:25:17.534Z,3.23
2018-09-02T23:27:45.730Z,3.07
2018-09-02T23:30:13.979Z,3.10
2018-09-02T23:32:42.133Z,3.40
2018-09-02T23:35:10.322Z,3.00
2018-09-02T23:37:38.503Z,3.13
2018-09-02T23:40:06.687Z,3.40
2018-09-02T23:42:34.895Z,3.50
2018-09-02T23:45:03.079Z,3.30
2018-09-02T23:47:31.245Z,3.10
2018-09-02T23:49:59.468Z,3.33
2018-09-02T23:52:27.647Z,2.97
2018-09-02T23:54:55.909Z,2.80
2018-09-02T23:57:24.082Z,3.60
2018-09-02T23:59:52.314Z,3.47
